Dronryp, Netherlands
Current Conditions -  °F | °C
As of 1:55 AM on Wednesday 22 Oct 2014 (Local Time) from EHLW Reporting Station
Broken Clouds Broken Clouds  
Wind Chill: 50°   Ceiling: 5000
Heat Index: 50°   Visibility: 6mi
Dew Point: 43°   Wind: 32mph
Humidity: 76%   Direction: 310°NW
Pressure: 29.68"   Gusts: 46mph
Location:  53.2°N, 5.65°E
Report Text: EHLW 212355Z AUTO 31028G40KT 9999 FEW025 SCT029 BKN050 10/06 Q1005 BLU
Loading
Personal Weather Stations






























Interactive Weather Map
Tropical Storm Tracking
New forecast layout! Learn more

10-Day Weather Forecast

Advertisements
Track Severe Weather on mobile